Time;durP1;ratioP1;P1;durP2;ratioP2;P2;SDS_P1;SDS_P2;PMS_P1;PMS_P2;Temp;Humidity;BMP_temperature;BMP_pressure;BME280_temperature;BME280_humidity;BME280_pressure;Samples;Min_cycle;Max_cycle;Signal;HPM_P1;HPM_P2
2021/09/02 00:00:50;;;;;;;8.23;4.85;;;12.30;78.70;;;;;;5088412;28;20055;-75
2021/09/02 00:03:16;;;;;;;7.53;4.40;;;12.30;78.60;;;;;;5089665;28;20084;-75
2021/09/02 00:05:42;;;;;;;6.97;4.60;;;12.30;78.60;;;;;;5088505;28;20028;-76
2021/09/02 00:08:07;;;;;;;7.95;4.32;;;12.30;78.40;;;;;;5087232;28;20084;-75
2021/09/02 00:10:34;;;;;;;8.82;4.05;;;12.30;78.30;;;;;;5088613;28;20481;-75
2021/09/02 00:13:00;;;;;;;6.57;4.68;;;12.30;78.20;;;;;;5086689;28;20020;-75
2021/09/02 00:15:26;;;;;;;5.30;4.40;;;12.40;78.10;;;;;;5074191;28;20115;-74
2021/09/02 00:17:51;;;;;;;5.88;4.30;;;12.40;77.60;;;;;;5071223;28;20099;-74
2021/09/02 00:20:17;;;;;;;8.40;4.18;;;12.40;77.50;;;;;;5074074;28;20052;-74
2021/09/02 00:22:43;;;;;;;5.28;3.65;;;12.40;77.50;;;;;;5076161;28;20020;-75
2021/09/02 00:25:09;;;;;;;6.97;4.03;;;12.40;77.60;;;;;;5074874;28;20041;-74
2021/09/02 00:27:35;;;;;;;8.15;4.97;;;12.30;77.60;;;;;;5074743;28;20109;-74
2021/09/02 00:30:01;;;;;;;6.90;4.65;;;12.30;77.80;;;;;;5074913;28;20058;-74
2021/09/02 00:32:26;;;;;;;6.18;4.13;;;12.30;77.90;;;;;;5074657;28;20025;-74
2021/09/02 00:34:52;;;;;;;5.10;3.65;;;12.20;78.20;;;;;;5074731;28;20024;-74
2021/09/02 00:37:17;;;;;;;9.52;5.00;;;12.20;78.00;;;;;;5074718;28;20127;-74
2021/09/02 00:39:43;;;;;;;8.65;4.82;;;12.20;77.70;;;;;;5074259;28;20050;-74
2021/09/02 00:42:09;;;;;;;13.02;5.35;;;12.10;78.00;;;;;;5074602;28;20024;-74
2021/09/02 00:44:44;;;;;;;8.27;4.90;;;12.10;78.20;;;;;;5074378;28;20036;-74
2021/09/02 00:47:11;;;;;;;8.48;4.60;;;12.00;78.20;;;;;;5074474;28;20021;-73
2021/09/02 00:49:41;;;;;;;5.68;4.40;;;12.00;77.90;;;;;;5073931;28;20109;-74
2021/09/02 00:52:14;;;;;;;6.28;4.07;;;12.00;77.60;;;;;;5074183;28;20041;-74
2021/09/02 00:54:50;;;;;;;4.97;3.58;;;12.00;77.50;;;;;;5072798;28;20042;-74
2021/09/02 00:57:24;;;;;;;5.85;4.25;;;11.90;77.30;;;;;;5058488;28;20056;-75
2021/09/02 00:59:51;;;;;;;5.47;3.75;;;11.90;77.50;;;;;;5074191;28;20024;-74
2021/09/02 01:02:19;;;;;;;6.25;4.35;;;11.80;77.60;;;;;;5074249;28;20033;-74
2021/09/02 01:04:45;;;;;;;6.63;4.40;;;11.80;77.70;;;;;;5074169;28;20480;-74
2021/09/02 01:07:11;;;;;;;7.47;4.50;;;11.80;78.50;;;;;;5073838;28;20036;-75
2021/09/02 01:09:37;;;;;;;7.50;4.45;;;11.80;77.40;;;;;;5073815;28;20051;-74
2021/09/02 01:12:25;;;;;;;5.75;3.90;;;11.80;77.30;;;;;;5074109;28;20021;-74
2021/09/02 01:14:51;;;;;;;6.13;4.15;;;11.80;77.20;;;;;;5073689;28;20032;-75
2021/09/02 01:17:16;;;;;;;6.20;4.13;;;11.70;76.90;;;;;;5073425;28;20503;-74
2021/09/02 01:19:43;;;;;;;8.40;4.78;;;11.70;77.10;;;;;;5076962;28;20475;-75
2021/09/02 01:22:08;;;;;;;7.05;4.20;;;11.60;77.30;;;;;;5077372;28;20016;-74
2021/09/02 01:24:34;;;;;;;6.93;4.32;;;11.60;77.40;;;;;;5073245;28;20058;-74
2021/09/02 01:26:59;;;;;;;6.60;4.35;;;11.60;78.10;;;;;;5073987;28;20387;-74
2021/09/02 01:29:25;;;;;;;6.18;4.35;;;11.60;77.10;;;;;;5073321;28;20056;-74
2021/09/02 01:31:52;;;;;;;8.45;4.65;;;11.60;77.00;;;;;;5072348;28;20082;-74
2021/09/02 01:34:17;;;;;;;5.90;4.55;;;11.60;77.00;;;;;;5073594;28;20054;-74
2021/09/02 01:36:46;;;;;;;5.75;4.50;;;11.60;76.80;;;;;;5073564;28;20491;-74
2021/09/02 01:39:20;;;;;;;6.30;4.32;;;11.50;76.70;;;;;;5057319;28;20040;-74
2021/09/02 01:41:46;;;;;;;7.13;4.40;;;11.40;76.60;;;;;;5073584;28;20024;-75
2021/09/02 01:44:12;;;;;;;5.80;4.28;;;11.40;76.90;;;;;;5073235;28;20037;-74
2021/09/02 01:46:37;;;;;;;4.72;3.60;;;11.30;77.40;;;;;;5074423;28;20041;-75
2021/09/02 01:49:03;;;;;;;5.38;3.92;;;11.20;77.60;;;;;;5073222;28;20392;-74
2021/09/02 01:51:28;;;;;;;6.80;4.13;;;11.20;77.70;;;;;;5072684;28;20114;-74
2021/09/02 01:53:54;;;;;;;6.00;4.18;;;11.20;77.60;;;;;;5073120;28;20020;-75
2021/09/02 01:56:20;;;;;;;6.88;4.30;;;11.20;77.40;;;;;;5072622;28;20043;-74
2021/09/02 01:58:45;;;;;;;5.18;3.67;;;11.20;77.40;;;;;;5073144;28;20035;-75
2021/09/02 02:01:12;;;;;;;5.28;3.63;;;11.10;77.40;;;;;;5072666;28;20024;-74
2021/09/02 02:03:37;;;;;;;4.63;3.88;;;11.20;77.70;;;;;;5072644;28;20127;-75
2021/09/02 02:06:03;;;;;;;6.35;4.47;;;11.10;78.00;;;;;;5072999;28;20100;-74
2021/09/02 02:08:29;;;;;;;8.63;4.95;;;11.20;78.10;;;;;;5072457;28;20101;-74
2021/09/02 02:10:54;;;;;;;5.43;3.92;;;11.20;77.70;;;;;;5072662;28;20423;-75
2021/09/02 02:13:20;;;;;;;7.60;4.72;;;11.20;77.50;;;;;;5072678;28;20032;-75
2021/09/02 02:15:45;;;;;;;6.90;4.40;;;11.20;77.30;;;;;;5072834;28;20024;-74
2021/09/02 02:18:11;;;;;;;7.88;4.43;;;11.20;77.30;;;;;;5072690;28;20070;-73
2021/09/02 02:20:36;;;;;;;7.60;3.92;;;11.10;77.30;;;;;;5072780;28;20657;-74
2021/09/02 02:23:02;;;;;;;6.28;4.18;;;11.10;77.60;;;;;;5073805;28;20461;-74
2021/09/02 02:25:28;;;;;;;8.23;4.25;;;11.10;77.80;;;;;;5072321;28;20039;-74
2021/09/02 02:27:53;;;;;;;5.45;3.63;;;11.10;78.70;;;;;;5072225;28;20021;-74
2021/09/02 02:30:20;;;;;;;8.18;4.13;;;11.20;77.50;;;;;;5073533;28;20024;-74
2021/09/02 02:32:47;;;;;;;5.90;4.20;;;11.10;77.00;;;;;;5073541;28;20116;-76
2021/09/02 02:35:14;;;;;;;5.47;4.22;;;11.00;76.90;;;;;;5073170;28;20020;-75
2021/09/02 02:37:40;;;;;;;6.20;4.07;;;11.00;77.00;;;;;;5072418;28;20029;-75
2021/09/02 02:40:08;;;;;;;8.32;4.43;;;10.90;77.10;;;;;;5071956;28;20027;-75
2021/09/02 02:42:33;;;;;;;5.55;4.38;;;10.90;77.20;;;;;;5072258;28;20028;-74
2021/09/02 02:44:59;;;;;;;5.90;3.95;;;10.80;77.20;;;;;;5071876;28;20078;-74
2021/09/02 02:47:25;;;;;;;6.63;3.92;;;10.80;77.50;;;;;;5071751;28;20054;-74
2021/09/02 02:49:50;;;;;;;7.65;4.40;;;10.70;78.00;;;;;;5072121;28;20086;-74
2021/09/02 02:52:16;;;;;;;7.45;4.38;;;10.70;78.30;;;;;;5072874;28;20127;-74
2021/09/02 02:54:41;;;;;;;5.93;3.88;;;10.70;78.30;;;;;;5072018;28;20025;-74
2021/09/02 02:57:07;;;;;;;5.97;4.00;;;10.70;78.40;;;;;;5073014;28;20024;-74
2021/09/02 02:59:33;;;;;;;6.18;4.00;;;10.80;78.50;;;;;;5073138;28;20021;-74
2021/09/02 03:01:59;;;;;;;4.68;3.53;;;10.80;78.20;;;;;;5073049;28;20021;-74
2021/09/02 03:04:25;;;;;;;7.45;3.95;;;10.70;77.90;;;;;;5071396;28;20123;-74
2021/09/02 03:06:50;;;;;;;7.38;4.35;;;10.70;78.00;;;;;;5071775;28;20020;-73
2021/09/02 03:09:16;;;;;;;6.40;4.57;;;10.60;78.40;;;;;;5071392;28;20162;-74
2021/09/02 03:11:41;;;;;;;6.63;4.40;;;10.50;78.90;;;;;;5071522;28;20029;-74
2021/09/02 03:14:07;;;;;;;6.82;4.05;;;10.50;79.40;;;;;;5071604;28;20036;-74
2021/09/02 03:16:33;;;;;;;6.40;4.60;;;10.50;79.50;;;;;;5073041;28;20038;-74
2021/09/02 03:18:58;;;;;;;6.20;4.50;;;10.40;79.40;;;;;;5071628;28;20024;-74
2021/09/02 03:21:24;;;;;;;6.93;4.82;;;10.40;79.40;;;;;;5071631;28;20021;-74
2021/09/02 03:23:50;;;;;;;5.45;4.15;;;10.40;79.50;;;;;;5071371;28;20029;-75
2021/09/02 03:26:16;;;;;;;6.80;4.03;;;10.40;79.60;;;;;;5071685;28;20024;-74
2021/09/02 03:28:41;;;;;;;6.53;4.43;;;10.40;79.70;;;;;;5071687;28;20037;-74
2021/09/02 03:31:07;;;;;;;10.30;4.85;;;10.40;80.00;;;;;;5071730;28;20035;-74
2021/09/02 03:33:33;;;;;;;5.47;4.00;;;10.40;79.90;;;;;;5071250;28;20533;-74
2021/09/02 03:35:58;;;;;;;6.13;4.07;;;10.40;80.00;;;;;;5071529;28;20021;-73
2021/09/02 03:38:24;;;;;;;7.97;4.63;;;10.40;80.10;;;;;;5071369;28;20028;-74
2021/09/02 03:40:50;;;;;;;5.35;4.38;;;10.40;79.90;;;;;;5071604;28;20511;-73
2021/09/02 03:43:20;;;;;;;6.07;4.28;;;10.40;79.60;;;;;;5071080;28;20380;-74
2021/09/02 03:45:45;;;;;;;6.03;4.40;;;10.40;79.50;;;;;;5071425;28;20036;-74
2021/09/02 03:48:11;;;;;;;5.45;3.80;;;10.40;79.40;;;;;;5070603;28;20020;-74
2021/09/02 03:50:37;;;;;;;6.78;4.10;;;10.40;79.10;;;;;;5071239;28;20047;-74
2021/09/02 03:53:02;;;;;;;6.75;4.03;;;10.40;78.60;;;;;;5070902;28;20035;-74
2021/09/02 03:55:28;;;;;;;7.35;4.05;;;10.40;78.50;;;;;;5074409;28;20420;-74
2021/09/02 03:57:55;;;;;;;8.25;4.43;;;10.40;78.60;;;;;;5074928;28;20028;-74
2021/09/02 04:00:20;;;;;;;7.20;4.72;;;10.40;78.60;;;;;;5075272;28;20040;-74
2021/09/02 04:02:46;;;;;;;9.32;4.18;;;10.40;78.60;;;;;;5074781;28;20021;-74
2021/09/02 04:05:12;;;;;;;7.53;4.80;;;10.30;78.40;;;;;;5074606;28;20137;-74
2021/09/02 04:07:37;;;;;;;5.63;4.07;;;10.30;78.30;;;;;;5075121;28;20048;-74
2021/09/02 04:10:05;;;;;;;10.02;5.43;;;10.20;78.20;;;;;;5075032;28;20024;-74
2021/09/02 04:12:31;;;;;;;6.60;4.13;;;10.20;78.30;;;;;;5074781;28;20082;-74
2021/09/02 04:14:57;;;;;;;8.75;5.00;;;10.10;78.20;;;;;;5075015;28;20056;-74
2021/09/02 04:17:23;;;;;;;8.68;4.57;;;10.10;78.60;;;;;;5074619;28;20048;-74
2021/09/02 04:19:49;;;;;;;7.88;5.10;;;10.00;79.00;;;;;;5074777;28;20063;-74
2021/09/02 04:22:15;;;;;;;7.18;5.07;;;10.00;79.30;;;;;;5074560;28;20056;-75
2021/09/02 04:24:40;;;;;;;7.65;4.60;;;10.00;79.40;;;;;;5074276;28;20036;-74
2021/09/02 04:27:10;;;;;;;6.60;4.32;;;10.00;79.20;;;;;;5074367;28;20375;-74
2021/09/02 04:29:36;;;;;;;6.70;4.18;;;10.00;78.90;;;;;;5074625;28;20559;-74
2021/09/02 04:32:02;;;;;;;6.95;4.55;;;10.00;78.90;;;;;;5074082;28;20115;-74
2021/09/02 04:34:27;;;;;;;5.68;4.00;;;10.00;78.90;;;;;;5057487;28;20071;-74
2021/09/02 04:36:53;;;;;;;6.07;4.47;;;10.00;78.90;;;;;;5074182;28;20077;-74
2021/09/02 04:39:18;;;;;;;5.90;4.07;;;10.00;79.00;;;;;;5074476;28;20434;-73
2021/09/02 04:41:44;;;;;;;9.93;6.00;;;10.00;78.90;;;;;;5076550;28;20023;-74
2021/09/02 04:44:10;;;;;;;9.55;5.55;;;10.00;78.60;;;;;;5079696;28;20033;-75
2021/09/02 04:46:35;;;;;;;15.30;8.23;;;9.90;78.50;;;;;;5078463;28;20460;-74
2021/09/02 04:49:01;;;;;;;13.25;8.10;;;9.90;78.60;;;;;;5076798;28;20484;-74
2021/09/02 04:51:27;;;;;;;13.18;8.05;;;9.90;78.70;;;;;;5075246;28;20570;-74
2021/09/02 04:53:52;;;;;;;14.68;8.60;;;9.90;78.90;;;;;;5073677;28;20519;-74
2021/09/02 04:56:18;;;;;;;20.15;9.93;;;10.00;78.80;;;;;;5074330;28;20064;-74
2021/09/02 04:58:43;;;;;;;18.17;9.73;;;10.00;78.60;;;;;;5074226;28;20024;-74
2021/09/02 05:01:09;;;;;;;16.60;9.75;;;10.00;78.40;;;;;;5073976;28;20060;-74
2021/09/02 05:03:34;;;;;;;17.30;10.55;;;10.10;78.30;;;;;;5073813;28;20113;-74
2021/09/02 05:06:00;;;;;;;16.75;10.80;;;10.10;78.30;;;;;;5072618;28;20037;-74
2021/09/02 05:08:25;;;;;;;13.38;8.98;;;10.00;78.20;;;;;;5073714;28;20025;-74
2021/09/02 05:10:51;;;;;;;13.05;7.80;;;10.00;78.30;;;;;;5073953;28;20070;-74
2021/09/02 05:13:17;;;;;;;11.95;7.00;;;10.00;78.20;;;;;;5073267;28;20025;-74
2021/09/02 05:15:42;;;;;;;9.25;5.82;;;10.00;78.00;;;;;;5073907;28;20025;-73
2021/09/02 05:18:08;;;;;;;6.90;4.85;;;10.00;78.00;;;;;;5073617;28;20028;-73
2021/09/02 05:20:34;;;;;;;8.50;5.47;;;10.00;78.20;;;;;;5073359;28;20526;-75
2021/09/02 05:23:00;;;;;;;9.63;5.85;;;10.10;78.30;;;;;;5073271;28;20017;-75
2021/09/02 05:25:25;;;;;;;13.73;7.35;;;10.10;78.30;;;;;;5073605;28;20127;-74
2021/09/02 05:27:51;;;;;;;12.52;6.80;;;10.10;78.40;;;;;;5073400;28;20021;-74
2021/09/02 05:30:17;;;;;;;19.52;11.95;;;10.20;78.10;;;;;;5073438;28;20143;-74
2021/09/02 05:32:43;;;;;;;19.17;12.70;;;10.20;78.40;;;;;;5073113;28;20070;-75
2021/09/02 05:35:09;;;;;;;20.73;12.32;;;10.20;77.60;;;;;;5073068;28;20020;-76
2021/09/02 05:37:36;;;;;;;22.83;14.50;;;10.20;77.80;;;;;;5073074;28;20432;-75
2021/09/02 05:40:04;;;;;;;19.27;12.73;;;10.20;78.50;;;;;;5073385;28;20020;-74
2021/09/02 05:42:29;;;;;;;17.70;12.23;;;10.20;78.70;;;;;;5073029;28;20062;-74
2021/09/02 05:44:55;;;;;;;20.77;12.45;;;10.20;79.10;;;;;;5072770;28;20542;-75
2021/09/02 05:47:21;;;;;;;16.63;10.95;;;10.30;79.70;;;;;;5072909;28;20027;-75
2021/09/02 05:49:46;;;;;;;18.30;10.65;;;10.40;79.60;;;;;;5073026;28;20078;-74
2021/09/02 05:52:12;;;;;;;12.20;8.48;;;10.60;79.50;;;;;;5072887;28;20045;-75
2021/09/02 05:54:37;;;;;;;12.82;9.00;;;10.70;78.80;;;;;;5072661;28;20028;-75
2021/09/02 05:57:03;;;;;;;11.57;7.40;;;10.80;78.30;;;;;;5072489;28;20056;-77
2021/09/02 05:59:29;;;;;;;12.13;7.43;;;10.90;78.00;;;;;;5072184;28;20039;-77
2021/09/02 06:01:56;;;;;;;13.45;7.05;;;11.00;77.70;;;;;;5073658;28;20281;-78
2021/09/02 06:04:45;;;;;;;18.15;7.63;;;11.10;77.60;;;;;;5073895;28;20128;-86
2021/09/02 06:07:25;;;;;;;13.15;7.15;;;11.80;95.70;;;;;;5072695;28;20020;-87
2021/09/02 06:09:53;;;;;;;10.25;7.10;;;11.90;90.60;;;;;;5069977;28;20029;-81
2021/09/02 06:12:19;;;;;;;13.88;8.15;;;12.20;87.50;;;;;;5072108;28;20021;-75
2021/09/02 06:14:44;;;;;;;10.48;6.75;;;12.50;84.00;;;;;;5071836;28;20039;-75
2021/09/02 06:17:10;;;;;;;13.05;7.03;;;12.40;79.70;;;;;;5071913;28;20054;-77
2021/09/02 06:19:35;;;;;;;13.00;7.72;;;12.40;77.80;;;;;;5072379;28;20012;-75
2021/09/02 06:22:01;;;;;;;14.57;7.55;;;12.30;75.60;;;;;;5072190;28;20115;-75
2021/09/02 06:24:27;;;;;;;11.07;7.10;;;12.30;76.10;;;;;;5071891;28;20102;-75
2021/09/02 06:26:52;;;;;;;9.00;6.95;;;12.20;76.30;;;;;;5072205;28;20027;-74
2021/09/02 06:29:18;;;;;;;11.52;6.43;;;12.30;76.80;;;;;;5072234;28;20063;-75
2021/09/02 06:31:43;;;;;;;12.75;7.25;;;12.30;76.50;;;;;;5071953;28;20540;-76
2021/09/02 06:34:09;;;;;;;12.00;6.57;;;12.30;76.80;;;;;;5072216;28;20027;-74
2021/09/02 06:36:35;;;;;;;11.55;7.63;;;12.40;76.90;;;;;;5071744;28;20038;-77
2021/09/02 06:39:00;;;;;;;13.95;7.70;;;12.40;76.80;;;;;;5071800;28;20025;-76
2021/09/02 06:41:26;;;;;;;11.25;7.80;;;12.40;76.80;;;;;;5071511;28;20391;-76
2021/09/02 06:43:51;;;;;;;11.07;7.35;;;12.40;77.10;;;;;;5071544;28;20492;-75
2021/09/02 06:46:17;;;;;;;16.45;9.63;;;12.40;77.70;;;;;;5071935;28;20496;-75
2021/09/02 06:48:42;;;;;;;12.00;8.73;;;12.30;78.40;;;;;;5073204;28;20032;-75
2021/09/02 06:51:09;;;;;;;12.70;8.65;;;11.90;80.40;;;;;;5071529;28;20078;-76
2021/09/02 06:53:35;;;;;;;14.00;9.10;;;11.60;83.20;;;;;;5071933;28;20032;-75
2021/09/02 06:56:00;;;;;;;15.23;10.25;;;11.60;84.50;;;;;;5071726;28;20023;-76
2021/09/02 06:58:27;;;;;;;19.83;10.55;;;11.50;85.00;;;;;;5071570;28;20128;-75
2021/09/02 07:00:54;;;;;;;24.73;11.38;;;11.50;85.90;;;;;;5071282;28;20072;-75
2021/09/02 07:03:20;;;;;;;23.42;12.00;;;11.60;85.50;;;;;;5071089;28;20024;-76
2021/09/02 07:05:45;;;;;;;23.23;11.45;;;11.80;84.90;;;;;;5071192;28;20032;-76
2021/09/02 07:08:11;;;;;;;20.38;10.90;;;12.00;83.70;;;;;;5071750;28;20025;-75
2021/09/02 07:10:38;;;;;;;18.77;10.07;;;12.10;83.40;;;;;;5071737;28;20082;-77
2021/09/02 07:13:05;;;;;;;18.45;10.63;;;12.30;83.00;;;;;;5071668;28;20025;-76
2021/09/02 07:15:31;;;;;;;14.40;8.88;;;12.50;82.60;;;;;;5071661;28;20021;-77
2021/09/02 07:17:58;;;;;;;15.05;9.43;;;12.70;81.70;;;;;;5071553;28;20487;-76
2021/09/02 07:20:23;;;;;;;13.60;9.40;;;12.80;82.00;;;;;;5071269;28;20392;-76
2021/09/02 07:22:49;;;;;;;17.83;10.27;;;12.80;80.90;;;;;;5054749;28;20029;-76
2021/09/02 07:25:16;;;;;;;16.55;9.13;;;12.90;81.40;;;;;;5071276;28;20063;-76
2021/09/02 07:27:42;;;;;;;19.63;10.05;;;13.10;81.50;;;;;;5071354;28;20048;-76
2021/09/02 07:30:08;;;;;;;17.13;9.32;;;13.30;81.00;;;;;;5070684;28;20071;-77
2021/09/02 07:32:34;;;;;;;15.18;9.05;;;13.40;80.50;;;;;;5072570;28;20029;-76
2021/09/02 07:35:00;;;;;;;14.38;9.73;;;13.40;80.40;;;;;;5071264;28;20445;-77
2021/09/02 07:37:26;;;;;;;15.48;9.95;;;13.40;80.40;;;;;;5071263;28;20384;-77
2021/09/02 07:39:52;;;;;;;14.63;8.57;;;13.40;81.10;;;;;;5071333;28;20035;-76
2021/09/02 07:42:17;;;;;;;15.15;9.45;;;13.50;80.70;;;;;;5054652;28;20127;-76
2021/09/02 07:44:43;;;;;;;16.10;9.70;;;13.60;80.70;;;;;;5070665;28;20442;-76
2021/09/02 07:47:10;;;;;;;18.50;9.20;;;13.70;80.80;;;;;;5070693;28;20110;-77
2021/09/02 07:49:36;;;;;;;14.80;9.13;;;13.80;80.10;;;;;;5070667;28;20384;-76
2021/09/02 07:52:03;;;;;;;12.95;8.80;;;14.00;80.40;;;;;;5070788;28;20489;-76
2021/09/02 07:54:28;;;;;;;15.32;8.70;;;13.90;79.60;;;;;;5053956;28;20040;-77
2021/09/02 07:56:54;;;;;;;13.55;8.70;;;14.00;79.80;;;;;;5072330;28;20464;-75
2021/09/02 07:59:21;;;;;;;13.55;8.85;;;14.10;79.70;;;;;;5070733;28;20063;-75
2021/09/02 08:01:47;;;;;;;15.07;8.82;;;14.40;79.30;;;;;;5071318;28;20279;-76
2021/09/02 08:04:13;;;;;;;14.93;8.73;;;14.50;79.40;;;;;;5071217;28;20031;-74
2021/09/02 08:06:39;;;;;;;15.63;8.85;;;14.60;79.00;;;;;;5054571;28;20036;-74
2021/09/02 08:09:05;;;;;;;14.10;8.15;;;14.80;78.30;;;;;;5072324;28;20024;-77
2021/09/02 08:11:31;;;;;;;9.68;6.47;;;15.00;77.60;;;;;;5071100;28;20471;-74
2021/09/02 08:13:57;;;;;;;14.73;8.02;;;15.10;75.30;;;;;;5071070;28;20047;-74
2021/09/02 08:16:24;;;;;;;13.10;6.65;;;15.20;76.40;;;;;;5072428;28;20103;-75
2021/09/02 08:18:50;;;;;;;15.82;7.68;;;15.40;76.10;;;;;;5070624;28;20021;-75
2021/09/02 08:21:15;;;;;;;10.40;6.00;;;15.60;76.70;;;;;;5070452;28;20469;-75
2021/09/02 08:23:42;;;;;;;9.27;5.82;;;15.70;73.50;;;;;;5070642;28;20036;-75
2021/09/02 08:26:07;;;;;;;8.98;6.03;;;15.90;73.30;;;;;;5070628;28;20112;-75
2021/09/02 08:28:33;;;;;;;6.60;4.90;;;16.10;71.00;;;;;;5070293;28;20496;-75
2021/09/02 08:30:59;;;;;;;8.27;4.95;;;16.30;69.00;;;;;;5070886;28;20094;-75
2021/09/02 08:33:25;;;;;;;12.23;6.88;;;16.60;69.60;;;;;;5070655;28;20119;-76
2021/09/02 08:35:51;;;;;;;9.70;6.25;;;16.70;70.80;;;;;;5070489;28;20059;-76
2021/09/02 08:38:18;;;;;;;13.38;7.50;;;16.80;70.80;;;;;;5070553;28;20033;-75
2021/09/02 08:40:45;;;;;;;18.17;10.95;;;16.90;70.20;;;;;;5072862;28;20396;-75
2021/09/02 08:43:11;;;;;;;16.95;10.35;;;17.00;70.30;;;;;;5075771;28;20027;-75
2021/09/02 08:45:37;;;;;;;8.02;4.75;;;17.10;70.10;;;;;;5058212;28;20492;-75
2021/09/02 08:48:03;;;;;;;9.45;4.60;;;17.10;61.60;;;;;;5074655;28;20049;-75
2021/09/02 08:50:35;;;;;;;7.60;4.60;;;17.20;60.00;;;;;;5073403;28;20568;-75
2021/09/02 08:53:02;;;;;;;7.38;4.00;;;17.50;60.10;;;;;;5074661;28;20044;-76
2021/09/02 08:55:28;;;;;;;8.38;4.55;;;17.60;58.50;;;;;;5073933;28;20039;-75
2021/09/02 08:57:54;;;;;;;5.40;3.97;;;17.80;57.50;;;;;;5073990;28;20032;-75
2021/09/02 09:00:27;;;;;;;5.63;4.07;;;18.00;58.80;;;;;;5073990;28;20195;-75
2021/09/02 09:03:01;;;;;;;6.00;4.47;;;18.10;58.00;;;;;;5075281;28;20396;-75
2021/09/02 09:05:32;;;;;;;5.85;4.28;;;18.30;55.70;;;;;;5073931;28;20175;-75
2021/09/02 09:07:58;;;;;;;6.53;4.10;;;18.40;54.80;;;;;;5073860;28;20106;-76
2021/09/02 09:10:29;;;;;;;7.47;4.32;;;18.70;56.00;;;;;;5073571;28;20480;-77
2021/09/02 09:12:59;;;;;;;6.30;3.88;;;18.90;55.60;;;;;;5073859;28;20021;-76
2021/09/02 09:15:34;;;;;;;8.77;4.30;;;19.00;54.40;;;;;;5073429;28;20035;-75
2021/09/02 09:18:14;;;;;;;5.95;4.18;;;19.10;51.10;;;;;;5074799;28;20025;-80
2021/09/02 09:21:29;;;;;;;7.05;4.03;;;19.20;50.00;;;;;;5056447;28;20100;-80
2021/09/02 09:24:33;;;;;;;8.65;3.55;;;19.10;50.30;;;;;;5074516;28;20556;-80
2021/09/02 09:30:55;;;;;;;4.97;3.95;;;19.20;48.90;;;;;;5062736;28;20039;-80
2021/09/02 09:34:30;;;;;;;6.32;3.75;;;19.20;48.30;;;;;;5065650;28;20127;-80
2021/09/02 09:38:09;;;;;;;4.93;3.30;;;19.30;47.30;;;;;;5012045;28;20026;-80
2021/09/02 09:41:53;;;;;;;5.55;3.97;;;19.50;47.90;;;;;;4995966;28;20055;-80
2021/09/02 09:45:18;;;;;;;6.60;3.55;;;19.60;47.20;;;;;;5007399;28;20077;-80
2021/09/02 09:48:14;;;;;;;6.82;3.95;;;19.80;46.90;;;;;;5012291;28;20061;-80
2021/09/02 09:51:33;;;;;;;;;;;20.00;45.20;;;;;;4991140;28;20112;-77
2021/09/02 10:02:21;;;;;;;6.72;3.90;;;20.30;44.50;;;;;;4841806;29;20040;-78
2021/09/02 10:05:27;;;;;;;5.00;3.70;;;20.50;46.60;;;;;;4837462;29;20082;-77
2021/09/02 10:09:14;;;;;;;6.65;4.07;;;20.60;45.00;;;;;;4822720;29;20038;-77
2021/09/02 10:12:42;;;;;;;5.68;3.40;;;20.80;42.50;;;;;;4790123;29;20030;-77
2021/09/02 10:19:36;;;;;;;5.78;3.63;;;21.20;43.70;;;;;;4896538;29;20035;-77
2021/09/02 10:30:08;;;;;;;4.57;3.60;;;21.80;41.90;;;;;;4913922;29;20541;-78
2021/09/02 10:47:20;;;;;;;8.23;3.35;;;22.20;38.70;;;;;;4934369;29;20042;-80
2021/09/02 10:54:05;;;;;;;6.38;3.70;;;22.80;38.80;;;;;;4938531;29;20195;-78
2021/09/02 10:57:39;;;;;;;4.85;3.00;;;23.10;37.50;;;;;;4922158;29;20159;-79
2021/09/02 11:01:09;;;;;;;5.03;3.53;;;23.50;37.90;;;;;;4908200;29;20497;-78
2021/09/02 11:04:57;;;;;;;3.38;2.90;;;23.90;36.80;;;;;;4895960;29;20586;-77
2021/09/02 11:08:06;;;;;;;6.55;3.45;;;24.20;35.30;;;;;;4895974;29;20418;-79
2021/09/02 11:11:41;;;;;;;4.47;3.33;;;24.40;34.70;;;;;;4971955;28;20065;-79
2021/09/02 11:29:10;;;;;;;4.28;3.47;;;25.10;31.90;;;;;;4876669;29;20035;-79
2021/09/02 11:32:50;;;;;;;4.22;3.45;;;25.10;31.90;;;;;;4876642;29;20447;-78
2021/09/02 11:36:32;;;;;;;4.35;2.78;;;25.20;32.80;;;;;;4895242;29;20078;-79
2021/09/02 11:39:39;;;;;;;4.75;3.63;;;25.30;32.30;;;;;;4872227;29;20031;-83
2021/09/02 11:42:09;;;;;;;4.63;3.50;;;25.50;32.40;;;;;;4895252;29;20036;-79
2021/09/02 11:44:39;;;;;;;4.20;3.50;;;25.60;31.60;;;;;;4894080;28;20051;-81
2021/09/02 11:47:10;;;;;;;6.63;3.72;;;25.60;31.40;;;;;;4949929;28;20027;-80
2021/09/02 11:49:44;;;;;;;4.15;3.33;;;25.60;31.10;;;;;;4954305;28;20069;-79
2021/09/02 11:52:36;;;;;;;4.95;3.13;;;25.60;31.50;;;;;;5007508;28;20076;-80
2021/09/02 11:55:03;;;;;;;5.40;3.17;;;25.70;31.10;;;;;;5013232;28;20117;-77
2021/09/02 11:57:28;;;;;;;3.97;3.25;;;25.70;31.30;;;;;;4998001;28;20525;-78
2021/09/02 12:00:24;;;;;;;4.35;3.30;;;25.70;31.10;;;;;;5014400;28;20116;-79
2021/09/02 12:02:56;;;;;;;4.53;3.50;;;25.90;32.20;;;;;;5012476;28;20033;-78
2021/09/02 12:05:46;;;;;;;8.35;3.38;;;26.00;31.70;;;;;;5020213;28;20116;-81
2021/09/02 12:08:16;;;;;;;7.63;3.90;;;26.10;30.60;;;;;;5086777;28;20052;-76
2021/09/02 12:10:46;;;;;;;4.45;3.50;;;26.20;30.60;;;;;;5073194;28;20069;-79
2021/09/02 12:13:47;;;;;;;6.72;3.30;;;26.30;30.70;;;;;;5071933;28;20047;-81
2021/09/02 12:17:09;;;;;;;11.65;3.58;;;26.20;29.70;;;;;;5062111;28;20419;-79
2021/09/02 12:19:59;;;;;;;4.63;3.55;;;25.70;29.40;;;;;;5074911;28;20029;-79
2021/09/02 12:22:37;;;;;;;6.00;3.38;;;25.40;29.20;;;;;;5057390;28;20041;-79
2021/09/02 12:25:57;;;;;;;5.85;3.40;;;25.00;30.50;;;;;;5040995;28;20037;-79
2021/09/02 12:28:50;;;;;;;6.43;3.85;;;25.00;31.30;;;;;;5059667;28;20036;-79
2021/09/02 12:31:31;;;;;;;5.47;3.20;;;25.20;32.70;;;;;;5073737;28;20444;-79
2021/09/02 12:34:06;;;;;;;5.38;3.78;;;25.70;32.70;;;;;;5053764;28;20068;-79
2021/09/02 12:36:36;;;;;;;5.27;3.53;;;26.10;32.00;;;;;;5056537;28;20029;-79
2021/09/02 12:39:32;;;;;;;5.88;3.70;;;26.50;31.80;;;;;;5056567;28;20048;-79
2021/09/02 12:42:00;;;;;;;6.15;3.70;;;26.70;30.10;;;;;;5065472;28;20033;-78
2021/09/02 12:44:36;;;;;;;4.57;3.25;;;26.80;29.50;;;;;;5073883;28;20044;-79
2021/09/02 12:47:14;;;;;;;4.22;3.10;;;27.00;30.60;;;;;;5060863;28;20050;-79
2021/09/02 12:49:46;;;;;;;7.00;3.92;;;27.20;29.90;;;;;;5056696;28;20036;-78
2021/09/02 12:52:17;;;;;;;4.72;3.20;;;27.20;29.50;;;;;;5073296;28;20139;-78
2021/09/02 12:55:02;;;;;;;3.42;2.92;;;27.40;28.30;;;;;;5073235;28;20122;-79
2021/09/02 12:57:32;;;;;;;5.45;3.80;;;27.50;29.00;;;;;;5066920;28;20032;-78
2021/09/02 12:59:58;;;;;;;4.80;3.80;;;27.60;29.00;;;;;;5073961;28;20098;-77
2021/09/02 13:02:24;;;;;;;5.80;4.25;;;27.80;28.90;;;;;;5074030;28;20028;-77
2021/09/02 13:04:50;;;;;;;5.15;3.58;;;27.80;27.70;;;;;;5073586;28;20039;-78
2021/09/02 13:07:15;;;;;;;4.00;3.60;;;27.90;26.80;;;;;;5057302;28;20028;-77
2021/09/02 13:09:41;;;;;;;5.43;3.55;;;27.80;26.60;;;;;;5074998;28;20036;-77
2021/09/02 13:12:10;;;;;;;4.18;3.55;;;27.80;27.20;;;;;;5073557;28;20121;-78
2021/09/02 13:14:35;;;;;;;6.40;3.42;;;27.60;27.50;;;;;;5073664;28;20485;-77
2021/09/02 13:17:01;;;;;;;3.75;3.20;;;27.60;28.80;;;;;;5059173;28;20031;-78
2021/09/02 13:19:27;;;;;;;4.05;3.65;;;27.70;28.90;;;;;;5076148;28;20439;-78
2021/09/02 13:21:52;;;;;;;5.28;3.90;;;27.90;28.10;;;;;;5074948;28;20481;-77
2021/09/02 13:24:18;;;;;;;3.88;3.25;;;27.90;27.30;;;;;;5073774;28;20036;-78
2021/09/02 13:26:43;;;;;;;5.93;3.50;;;28.00;27.00;;;;;;5072464;28;20473;-78
2021/09/02 13:29:10;;;;;;;4.57;3.45;;;28.20;27.50;;;;;;5074576;28;20023;-77
2021/09/02 13:31:36;;;;;;;5.45;3.70;;;28.20;28.10;;;;;;5074800;28;20039;-77
2021/09/02 13:34:03;;;;;;;3.85;3.38;;;28.20;28.10;;;;;;5073003;28;20123;-77
2021/09/02 13:36:28;;;;;;;5.70;3.58;;;28.20;27.80;;;;;;5073413;28;20106;-77
2021/09/02 13:38:54;;;;;;;5.55;3.90;;;28.40;28.10;;;;;;5075362;28;20395;-77
2021/09/02 13:41:20;;;;;;;6.05;3.90;;;28.70;28.90;;;;;;5057330;28;20056;-78
2021/09/02 13:43:45;;;;;;;4.85;3.45;;;28.70;28.40;;;;;;5072921;28;20064;-77
2021/09/02 13:46:11;;;;;;;3.80;3.35;;;28.60;28.10;;;;;;5073966;28;20483;-77
2021/09/02 13:48:37;;;;;;;5.75;3.58;;;28.60;27.80;;;;;;5073040;28;20524;-77
2021/09/02 13:51:03;;;;;;;4.30;3.38;;;28.60;28.00;;;;;;5072769;28;20036;-77
2021/09/02 13:53:28;;;;;;;5.30;3.33;;;28.50;28.60;;;;;;5072540;28;20129;-77
2021/09/02 13:55:54;;;;;;;4.53;3.10;;;28.50;28.50;;;;;;5072805;28;20110;-77
2021/09/02 13:58:20;;;;;;;5.75;3.78;;;28.50;27.80;;;;;;5072772;28;20062;-77
2021/09/02 14:00:47;;;;;;;4.90;3.55;;;28.40;27.90;;;;;;5074116;28;20021;-79
2021/09/02 14:03:12;;;;;;;5.15;3.53;;;28.30;27.80;;;;;;5072836;28;20058;-78